Saturday, November 18, 2017, 7:09 AM EST
Back to Local

KFDK, Frederick, Frederick Municipal Airport

Location: Frederick, MD, United States Lat: 39.417
Local Time: 7:09 AM EST (12:09 GMT) Lon: -77.374
Time Zone: US/Eastern Elev: 301 ft

Show me the last for .
Show Decoded

2017-11-18 06:45 METAR KFDK 181145Z AUTO 00000KT 10SM CLR 00/00 A2991 RMK AO2 =
2017-11-18 06:25 METAR KFDK 181125Z AUTO 00000KT 10SM CLR 01/00 A2993 RMK AO2 =
2017-11-18 06:05 METAR KFDK 181105Z AUTO 00000KT 10SM CLR 00/00 A2994 RMK AO2 =
2017-11-18 05:45 METAR KFDK 181045Z AUTO 00000KT 10SM CLR 00/00 A2995 RMK AO2 =
2017-11-18 05:25 METAR KFDK 181025Z AUTO 00000KT 10SM CLR 01/00 A2995 RMK AO2 =
2017-11-18 05:05 METAR KFDK 181005Z AUTO 20003KT 10SM CLR 01/00 A2997 RMK AO2 =
2017-11-18 04:45 METAR KFDK 180945Z AUTO 20003KT 10SM CLR 01/00 A2998 RMK AO2 =
2017-11-18 04:25 METAR KFDK 180925Z AUTO 17003KT 10SM CLR 00/00 A2999 RMK AO2 =
2017-11-18 04:05 METAR KFDK 180905Z AUTO 00000KT 10SM CLR 00/00 A3000 RMK AO2 LTG DSNT W =
2017-11-18 03:45 METAR KFDK 180845Z AUTO 00000KT 10SM CLR M01/M01 A3000 RMK AO2 =
2017-11-18 03:05 METAR KFDK 180805Z AUTO 00000KT 10SM CLR M01/M01 A3002 RMK AO2 =
2017-11-18 02:05 METAR KFDK 180705Z AUTO 00000KT 10SM CLR 00/00 A3004 RMK AO2 =
2017-11-18 01:45 METAR KFDK 180645Z AUTO 00000KT 10SM CLR M01/M01 A3005 RMK AO2 =
2017-11-18 01:25 METAR KFDK 180625Z AUTO 00000KT 10SM CLR 00/00 A3005 RMK AO2 =
2017-11-18 00:45 METAR KFDK 180545Z AUTO 00000KT 10SM CLR 00/00 A3008 RMK AO2 =
2017-11-18 00:25 METAR KFDK 180525Z AUTO 00000KT 10SM CLR 00/00 A3009 RMK AO2 =
2017-11-18 00:05 METAR KFDK 180505Z AUTO 00000KT 10SM CLR 00/00 A3010 RMK AO2 =
2017-11-17 23:45 METAR KFDK 180445Z AUTO 00000KT 10SM CLR 01/00 A3011 RMK AO2 =
2017-11-17 23:25 METAR KFDK 180425Z AUTO 00000KT 10SM CLR 00/00 A3012 RMK AO2 =
2017-11-17 23:05 METAR KFDK 180405Z AUTO 00000KT 10SM CLR 00/00 A3012 RMK AO2 LTG DSNT E =
2017-11-17 22:45 METAR KFDK 180345Z AUTO 00000KT 10SM CLR 00/00 A3013 RMK AO2 LTG DSNT E =
2017-11-17 22:25 METAR KFDK 180325Z AUTO 00000KT 10SM CLR 00/00 A3013 RMK AO2 LTG DSNT W =
2017-11-17 22:05 METAR KFDK 180305Z AUTO 00000KT 10SM CLR 01/00 A3014 RMK AO2 =
2017-11-17 21:45 METAR KFDK 180245Z AUTO 00000KT 10SM CLR 00/M01 A3014 RMK AO2 =
2017-11-17 21:25 METAR KFDK 180225Z AUTO 00000KT 10SM CLR 01/00 A3013 RMK AO2 =
2017-11-17 21:05 METAR KFDK 180205Z AUTO 00000KT 10SM CLR 01/M01 A3014 RMK AO2 =
2017-11-17 19:47 METAR KFDK 180047Z 00000KT 10SM SKC 01/M02 A3015 =
2017-11-17 18:47 METAR KFDK 172347Z 00000KT 10SM SKC 04/M02 A3016 =
2017-11-17 17:47 METAR KFDK 172247Z 00000KT 10SM SKC 04/M02 A3017 =
2017-11-17 16:47 METAR KFDK 172147Z 28004KT 10SM SKC 09/M04 A3017 =
2017-11-17 15:47 METAR KFDK 172047Z 29006KT 10SM SKC 11/M06 A3018 =
2017-11-17 14:47 METAR KFDK 171947Z 33006KT 10SM SKC 11/M06 A3017 =
2017-11-17 13:47 METAR KFDK 171847Z 30006KT 10SM SKC 12/M06 A3019 =
2017-11-17 12:50 METAR KFDK 171750Z 33005KT 10SM SKC 11/M05 A3020 =
2017-11-17 11:47 METAR KFDK 171647Z 34005KT 10SM SKC 11/M04 A3023 =
2017-11-17 10:47 METAR KFDK 171547Z 34010G15KT 10SM SKC 09/M04 A3025 =
2017-11-17 09:47 METAR KFDK 171447Z 31008KT 10SM SKC 08/M04 A3026 =
2017-11-17 08:47 METAR KFDK 171347Z 31008KT 10SM SKC 07/M03 A3025 =
2017-11-17 07:47 METAR KFDK 171247Z 00000KT 10SM SKC 05/M02 A3023 =

Support USWX by starting your Amazon purchase here.